Time;durP1;ratioP1;P1;durP2;ratioP2;P2;SDS_P1;SDS_P2;PMS_P1;PMS_P2;Temp;Humidity;BMP_temperature;BMP_pressure;BME280_temperature;BME280_humidity;BME280_pressure;Samples;Min_cycle;Max_cycle;Signal;HPM_P1;HPM_P2
2022/01/08 00:01:40;;;;;;;0.50;0.30;;;3.20;99.90;;;;;;5156915;27;20417;-56
2022/01/08 00:04:07;;;;;;;0.60;0.30;;;3.20;99.90;;;;;;5156900;27;20484;-57
2022/01/08 00:06:34;;;;;;;0.57;0.30;;;3.00;99.90;;;;;;5156853;27;20423;-55
2022/01/08 00:09:01;;;;;;;0.80;0.30;;;3.00;99.90;;;;;;5157065;27;20503;-57
2022/01/08 00:11:29;;;;;;;0.50;0.30;;;2.90;99.90;;;;;;5157219;27;20425;-57
2022/01/08 00:13:56;;;;;;;0.70;0.40;;;2.80;99.90;;;;;;5157923;27;20862;-57
2022/01/08 00:16:23;;;;;;;0.60;0.40;;;2.90;99.90;;;;;;5158013;27;20836;-56
2022/01/08 00:18:51;;;;;;;0.70;0.40;;;3.00;99.90;;;;;;5156188;27;20497;-57
2022/01/08 00:21:19;;;;;;;0.80;0.30;;;3.00;99.90;;;;;;5155946;27;20425;-57
2022/01/08 00:23:46;;;;;;;0.70;0.40;;;2.90;99.90;;;;;;5156748;27;20447;-56
2022/01/08 00:26:12;;;;;;;1.20;0.30;;;2.90;99.90;;;;;;5157646;27;20452;-56
2022/01/08 00:28:41;;;;;;;0.50;0.30;;;2.90;99.90;;;;;;5157175;27;20607;-56
2022/01/08 00:31:10;;;;;;;0.50;0.30;;;2.90;99.90;;;;;;5158786;27;20428;-58
2022/01/08 00:33:37;;;;;;;0.80;0.30;;;3.00;99.90;;;;;;5156873;27;20416;-57
2022/01/08 00:36:04;;;;;;;0.60;0.30;;;3.10;99.90;;;;;;5156426;27;20547;-56
2022/01/08 00:38:31;;;;;;;0.50;0.30;;;3.00;99.90;;;;;;5156821;27;20517;-54
2022/01/08 00:40:58;;;;;;;1.00;0.30;;;3.00;99.90;;;;;;5156230;27;20685;-52
2022/01/08 00:43:25;;;;;;;0.63;0.40;;;3.00;99.90;;;;;;5156844;27;20527;-56
2022/01/08 00:45:54;;;;;;;0.80;0.30;;;3.00;99.90;;;;;;5156868;27;20507;-56
2022/01/08 00:48:21;;;;;;;0.63;0.30;;;3.10;99.90;;;;;;5157168;27;20444;-54
2022/01/08 00:50:48;;;;;;;0.90;0.30;;;3.10;99.90;;;;;;5157746;27;20420;-55
2022/01/08 00:53:15;;;;;;;1.13;0.40;;;3.00;99.90;;;;;;5157620;27;20417;-55
2022/01/08 00:55:42;;;;;;;0.60;0.30;;;2.90;99.90;;;;;;5158509;27;20527;-53
2022/01/08 00:58:14;;;;;;;0.80;0.40;;;2.80;99.90;;;;;;5158393;27;20887;-52
2022/01/08 01:00:41;;;;;;;0.90;0.30;;;2.90;99.90;;;;;;5156074;27;20436;-55
2022/01/08 01:03:10;;;;;;;0.90;0.40;;;2.80;99.90;;;;;;5155013;27;20408;-53
2022/01/08 01:05:40;;;;;;;1.00;0.40;;;2.80;99.90;;;;;;5155438;27;20499;-56
2022/01/08 01:08:07;;;;;;;0.70;0.30;;;2.90;99.90;;;;;;5155652;27;20465;-54
2022/01/08 01:10:34;;;;;;;0.68;0.38;;;3.00;99.90;;;;;;5154413;27;20825;-56
2022/01/08 01:13:01;;;;;;;0.90;0.38;;;3.00;99.90;;;;;;5155201;27;20891;-56
2022/01/08 01:15:31;;;;;;;0.68;0.40;;;3.00;99.90;;;;;;5156531;27;20504;-55
2022/01/08 01:17:57;;;;;;;0.73;0.40;;;3.00;99.90;;;;;;5156359;27;20454;-57
2022/01/08 01:20:26;;;;;;;0.90;0.40;;;3.00;99.90;;;;;;5156418;27;20409;-56
2022/01/08 01:22:58;;;;;;;0.70;0.40;;;3.10;99.90;;;;;;5157231;27;20424;-56
2022/01/08 01:25:30;;;;;;;0.93;0.40;;;3.00;99.90;;;;;;5157152;27;20826;-57
2022/01/08 01:28:13;;;;;;;0.70;0.40;;;3.00;99.90;;;;;;5151377;27;20419;-55
2022/01/08 01:42:09;;;;;;;1.50;0.40;;;3.10;99.90;;;;;;5157381;27;20408;-55
2022/01/08 01:47:32;;;;;;;0.80;0.40;;;3.10;99.90;;;;;;5155872;27;20486;-58
2022/01/08 01:49:59;;;;;;;0.68;0.40;;;3.10;99.90;;;;;;5155580;27;20460;-57
2022/01/08 01:52:28;;;;;;;1.00;0.40;;;3.10;99.90;;;;;;5156546;27;20507;-53
2022/01/08 01:54:55;;;;;;;1.70;0.38;;;3.10;99.90;;;;;;5156827;27;20473;-57
2022/01/08 01:57:22;;;;;;;0.70;0.40;;;3.10;99.90;;;;;;5156357;27;20429;-56
2022/01/08 01:59:49;;;;;;;0.73;0.40;;;3.10;99.90;;;;;;5156630;27;20421;-55
2022/01/08 02:02:16;;;;;;;1.20;0.40;;;3.10;99.90;;;;;;5156975;27;20515;-56
2022/01/08 02:04:43;;;;;;;0.90;0.40;;;3.10;99.90;;;;;;5157096;27;20441;-56
2022/01/08 02:07:10;;;;;;;0.75;0.30;;;3.10;99.90;;;;;;5157447;27;20499;-57
2022/01/08 02:09:39;;;;;;;0.60;0.33;;;3.00;99.90;;;;;;5157069;27;20879;-57
2022/01/08 02:12:10;;;;;;;1.40;0.30;;;3.10;99.90;;;;;;5156719;27;20839;-57
2022/01/08 02:14:38;;;;;;;0.90;0.30;;;3.10;99.90;;;;;;5156440;27;20819;-55
2022/01/08 02:17:07;;;;;;;0.73;0.30;;;3.20;99.90;;;;;;5156190;27;20523;-57
2022/01/08 02:19:34;;;;;;;0.80;0.40;;;3.20;99.90;;;;;;5155851;27;20413;-55
2022/01/08 02:22:05;;;;;;;0.50;0.30;;;3.20;99.90;;;;;;5155468;27;20524;-52
2022/01/08 02:24:32;;;;;;;0.68;0.30;;;3.30;99.90;;;;;;5155262;27;20496;-53
2022/01/08 02:26:59;;;;;;;0.90;0.30;;;3.30;99.90;;;;;;5155988;27;20770;-55
2022/01/08 02:29:27;;;;;;;0.57;0.20;;;3.40;99.90;;;;;;5156172;27;20492;-54
2022/01/08 02:31:56;;;;;;;0.60;0.30;;;3.50;99.90;;;;;;5156475;27;20739;-53
2022/01/08 02:34:23;;;;;;;1.30;0.20;;;3.50;99.90;;;;;;5154969;27;20499;-55
2022/01/08 02:36:50;;;;;;;0.85;0.30;;;3.60;99.90;;;;;;5153625;27;21078;-57
2022/01/08 02:39:19;;;;;;;0.57;0.20;;;3.50;99.90;;;;;;5154897;27;20789;-55
2022/01/08 02:41:46;;;;;;;0.40;0.20;;;3.40;99.90;;;;;;5155738;27;20524;-54
2022/01/08 02:44:15;;;;;;;0.70;0.30;;;3.50;99.90;;;;;;5159565;27;20465;-56
2022/01/08 02:46:42;;;;;;;0.82;0.20;;;3.50;99.90;;;;;;5160104;27;20711;-56
2022/01/08 02:49:09;;;;;;;0.55;0.22;;;3.60;99.90;;;;;;5160454;27;20508;-56
2022/01/08 02:51:37;;;;;;;0.40;0.20;;;3.60;99.90;;;;;;5160854;27;20511;-54
2022/01/08 02:54:08;;;;;;;0.77;0.20;;;3.70;99.90;;;;;;5160717;27;20417;-55
2022/01/08 02:56:38;;;;;;;0.43;0.20;;;3.70;99.90;;;;;;5161111;27;20464;-53
2022/01/08 02:59:05;;;;;;;0.52;0.30;;;3.70;99.90;;;;;;5160933;27;20412;-57
2022/01/08 03:01:33;;;;;;;0.50;0.30;;;3.80;99.90;;;;;;5160731;27;20550;-55
2022/01/08 03:04:00;;;;;;;0.40;0.20;;;3.80;99.90;;;;;;5160888;27;20484;-59
2022/01/08 03:06:27;;;;;;;0.50;0.28;;;3.80;99.90;;;;;;5160591;27;20519;-54
2022/01/08 03:08:54;;;;;;;0.60;0.30;;;3.80;99.90;;;;;;5160910;27;20419;-55
2022/01/08 03:11:21;;;;;;;0.50;0.40;;;3.80;99.90;;;;;;5160733;27;20507;-56
2022/01/08 03:13:49;;;;;;;0.82;0.30;;;3.90;99.90;;;;;;5160505;27;20862;-54
2022/01/08 03:16:17;;;;;;;1.10;0.30;;;3.90;99.90;;;;;;5160865;27;20424;-56
2022/01/08 03:18:46;;;;;;;0.55;0.30;;;3.80;99.90;;;;;;5160625;27;20828;-53
2022/01/08 03:21:16;;;;;;;0.60;0.30;;;3.80;99.90;;;;;;5160595;27;20477;-56
2022/01/08 03:23:48;;;;;;;1.80;0.30;;;3.70;99.90;;;;;;5160243;27;20448;-52
2022/01/08 03:26:16;;;;;;;0.40;0.20;;;3.80;99.90;;;;;;5160722;27;20423;-54
2022/01/08 03:28:45;;;;;;;0.95;0.30;;;3.90;99.90;;;;;;5160409;27;20416;-55
2022/01/08 03:31:15;;;;;;;0.90;0.30;;;3.90;99.90;;;;;;5159697;27;20710;-54
2022/01/08 03:33:42;;;;;;;1.70;0.30;;;3.80;99.90;;;;;;5158884;27;20511;-54
2022/01/08 03:36:10;;;;;;;0.70;0.30;;;3.80;99.90;;;;;;5157692;27;20955;-55
2022/01/08 03:38:37;;;;;;;1.45;0.30;;;3.70;99.90;;;;;;5157538;27;20409;-56
2022/01/08 03:41:06;;;;;;;0.50;0.30;;;3.60;99.90;;;;;;5158268;27;20882;-56
2022/01/08 03:43:34;;;;;;;0.50;0.30;;;3.50;99.90;;;;;;5158604;27;20483;-51
2022/01/08 03:46:03;;;;;;;0.60;0.30;;;3.50;99.90;;;;;;5158192;27;20417;-52
2022/01/08 03:48:43;;;;;;;1.08;0.40;;;3.60;99.90;;;;;;5158957;27;20412;-55
2022/01/08 03:51:10;;;;;;;1.00;0.40;;;3.60;99.90;;;;;;5157851;27;20425;-51
2022/01/08 03:53:37;;;;;;;0.70;0.40;;;3.60;99.90;;;;;;5158588;27;20770;-61
2022/01/08 03:56:04;;;;;;;0.70;0.40;;;3.70;99.90;;;;;;5156800;27;20532;-55
2022/01/08 03:58:31;;;;;;;0.90;0.40;;;3.70;99.90;;;;;;5157192;27;20474;-52
2022/01/08 04:00:58;;;;;;;0.70;0.47;;;3.60;99.90;;;;;;5151616;27;20461;-53
2022/01/08 04:03:25;;;;;;;0.70;0.40;;;3.50;99.90;;;;;;5153974;27;20409;-53
2022/01/08 04:05:53;;;;;;;1.40;0.50;;;3.50;99.90;;;;;;5156281;27;20512;-49
2022/01/08 04:08:20;;;;;;;0.80;0.40;;;3.50;99.90;;;;;;5156292;27;20499;-49
2022/01/08 04:10:47;;;;;;;0.70;0.40;;;3.40;99.90;;;;;;5157187;27;20427;-54
2022/01/08 04:13:17;;;;;;;0.60;0.40;;;3.60;99.90;;;;;;5158151;27;20416;-55
2022/01/08 04:15:46;;;;;;;1.65;0.50;;;3.50;99.90;;;;;;5156947;27;20575;-54
2022/01/08 04:18:14;;;;;;;0.90;0.40;;;3.60;99.90;;;;;;5157222;27;20836;-52
2022/01/08 04:20:50;;;;;;;0.70;0.40;;;3.50;99.90;;;;;;5158321;27;20863;-53
2022/01/08 04:23:21;;;;;;;0.93;0.40;;;3.50;99.90;;;;;;5159053;27;20847;-53
2022/01/08 04:25:49;;;;;;;1.00;0.40;;;3.40;99.90;;;;;;5159078;27;20425;-53
2022/01/08 04:28:16;;;;;;;0.65;0.40;;;3.50;99.90;;;;;;5159444;27;20452;-52
2022/01/08 04:30:44;;;;;;;0.80;0.40;;;3.60;99.90;;;;;;5159270;27;20511;-52
2022/01/08 04:33:11;;;;;;;0.60;0.30;;;3.70;99.90;;;;;;5158160;27;20489;-50
2022/01/08 04:35:38;;;;;;;0.67;0.40;;;3.80;99.90;;;;;;5158607;27;20507;-52
2022/01/08 04:38:05;;;;;;;0.80;0.40;;;3.60;99.90;;;;;;5158700;27;20507;-55
2022/01/08 04:40:34;;;;;;;0.70;0.40;;;3.60;99.90;;;;;;5158317;27;20500;-53
2022/01/08 04:43:01;;;;;;;1.73;0.40;;;3.70;99.90;;;;;;5157350;27;20417;-51
2022/01/08 04:45:29;;;;;;;0.70;0.40;;;3.50;99.90;;;;;;5157799;27;20409;-54
2022/01/08 04:47:57;;;;;;;0.70;0.40;;;3.60;99.90;;;;;;5158667;27;20413;-52
2022/01/08 04:50:24;;;;;;;0.80;0.40;;;3.60;99.90;;;;;;5157687;27;20531;-54
2022/01/08 04:52:51;;;;;;;0.80;0.40;;;3.60;99.90;;;;;;5158521;27;20445;-53
2022/01/08 04:55:18;;;;;;;0.80;0.40;;;3.50;99.90;;;;;;5157566;27;20504;-52
2022/01/08 04:57:47;;;;;;;0.67;0.40;;;3.50;99.90;;;;;;5158029;27;20946;-55
2022/01/08 05:00:16;;;;;;;0.60;0.32;;;3.30;99.90;;;;;;5157784;27;20705;-56
2022/01/08 05:02:43;;;;;;;0.70;0.40;;;3.30;99.90;;;;;;5156496;27;20907;-55
2022/01/08 05:05:11;;;;;;;1.00;0.40;;;3.30;99.90;;;;;;5155663;27;20504;-54
2022/01/08 05:07:38;;;;;;;0.73;0.40;;;3.20;99.90;;;;;;5156342;27;20451;-53
2022/01/08 05:10:07;;;;;;;0.70;0.40;;;3.20;99.90;;;;;;5156428;27;20495;-55
2022/01/08 05:12:34;;;;;;;0.60;0.40;;;3.10;99.90;;;;;;5158417;27;20511;-55
2022/01/08 05:15:03;;;;;;;0.60;0.30;;;3.00;99.90;;;;;;5158002;27;20504;-55
2022/01/08 05:17:34;;;;;;;0.88;0.40;;;3.00;99.90;;;;;;5157797;27;20531;-51
2022/01/08 05:20:02;;;;;;;0.80;0.30;;;3.00;99.90;;;;;;5157676;27;20448;-53
2022/01/08 05:22:39;;;;;;;1.20;0.40;;;3.00;99.90;;;;;;5158040;27;20429;-52
2022/01/08 05:25:07;;;;;;;0.70;0.30;;;3.00;99.90;;;;;;5157258;27;20712;-55
2022/01/08 05:27:34;;;;;;;0.50;0.30;;;3.00;99.90;;;;;;5157600;27;20417;-55
2022/01/08 05:30:02;;;;;;;0.80;0.30;;;3.10;99.90;;;;;;5157535;27;20823;-52
2022/01/08 05:32:30;;;;;;;2.40;0.30;;;3.10;99.90;;;;;;5157320;27;20507;-52
2022/01/08 05:34:57;;;;;;;0.60;0.30;;;2.90;99.90;;;;;;5157181;27;20839;-52
2022/01/08 05:37:24;;;;;;;0.50;0.30;;;2.90;99.90;;;;;;5158055;27;20862;-51
2022/01/08 05:39:51;;;;;;;0.50;0.30;;;2.80;99.90;;;;;;5157524;27;20512;-56
2022/01/08 05:42:19;;;;;;;0.50;0.30;;;2.90;99.90;;;;;;5157325;27;20511;-54
2022/01/08 05:44:46;;;;;;;0.50;0.30;;;3.20;99.90;;;;;;5157283;27;20907;-55
2022/01/08 05:47:15;;;;;;;0.60;0.30;;;3.30;99.90;;;;;;5157856;27;20507;-51
2022/01/08 05:49:42;;;;;;;0.40;0.20;;;3.40;99.90;;;;;;5157395;27;20417;-55
2022/01/08 05:52:09;;;;;;;0.40;0.20;;;3.40;99.90;;;;;;5157364;27;20808;-56
2022/01/08 05:54:36;;;;;;;0.40;0.20;;;3.40;99.90;;;;;;5157410;27;20405;-53
2022/01/08 05:57:04;;;;;;;0.40;0.20;;;3.50;99.90;;;;;;5157260;27;20435;-53
2022/01/08 05:59:31;;;;;;;0.50;0.20;;;3.40;99.90;;;;;;5157135;27;20731;-52
2022/01/08 06:01:58;;;;;;;0.50;0.20;;;3.40;99.90;;;;;;5156252;27;20526;-54
2022/01/08 06:04:27;;;;;;;0.40;0.20;;;3.40;99.90;;;;;;5154987;27;20736;-53
2022/01/08 06:06:53;;;;;;;0.35;0.20;;;3.40;99.90;;;;;;5155253;27;20412;-55
2022/01/08 06:09:20;;;;;;;0.40;0.20;;;3.50;99.90;;;;;;5154299;27;20507;-55
2022/01/08 06:11:50;;;;;;;0.30;0.20;;;3.50;99.90;;;;;;5154221;27;20519;-49
2022/01/08 06:14:16;;;;;;;0.60;0.20;;;3.50;99.90;;;;;;5154158;27;20409;-53
2022/01/08 06:16:46;;;;;;;0.30;0.20;;;3.50;99.90;;;;;;5154686;27;20516;-51
2022/01/08 06:19:15;;;;;;;0.30;0.10;;;3.50;99.90;;;;;;5157171;27;20405;-51
2022/01/08 06:21:44;;;;;;;0.30;0.10;;;3.40;99.90;;;;;;5156374;27;20904;-54
2022/01/08 06:24:11;;;;;;;0.30;0.10;;;3.30;99.90;;;;;;5156452;27;20495;-51
2022/01/08 06:26:38;;;;;;;0.30;0.10;;;3.40;99.90;;;;;;5156992;27;20503;-53
2022/01/08 06:29:04;;;;;;;1.00;0.10;;;3.30;99.90;;;;;;5156920;27;20505;-51
2022/01/08 06:31:31;;;;;;;0.30;0.10;;;3.30;99.90;;;;;;5157071;27;20519;-55
2022/01/08 06:33:58;;;;;;;0.30;0.10;;;3.30;99.90;;;;;;5157200;27;20416;-54
2022/01/08 06:36:26;;;;;;;0.38;0.13;;;3.20;99.90;;;;;;5156684;27;20790;-53
2022/01/08 06:38:54;;;;;;;0.40;0.10;;;3.00;99.90;;;;;;5155757;27;20899;-56
2022/01/08 06:41:22;;;;;;;0.30;0.20;;;3.00;99.90;;;;;;5155556;27;20444;-49
2022/01/08 06:43:48;;;;;;;0.30;0.10;;;3.10;99.90;;;;;;5154571;27;20491;-53
2022/01/08 06:46:16;;;;;;;0.40;0.13;;;3.10;99.90;;;;;;5154791;27;20531;-53
2022/01/08 06:48:42;;;;;;;0.30;0.10;;;3.00;99.90;;;;;;5155382;27;20504;-53
2022/01/08 06:51:10;;;;;;;0.40;0.10;;;3.00;99.90;;;;;;5155103;27;20431;-52
2022/01/08 06:53:37;;;;;;;0.40;0.10;;;3.00;99.90;;;;;;5154970;27;20763;-56
2022/01/08 06:56:05;;;;;;;0.30;0.17;;;3.10;99.90;;;;;;5155041;27;20512;-55
2022/01/08 06:58:32;;;;;;;0.40;0.20;;;3.20;99.90;;;;;;5155817;27;20576;-56
2022/01/08 07:00:59;;;;;;;0.50;0.20;;;3.30;99.90;;;;;;5155464;27;20470;-55
2022/01/08 07:03:26;;;;;;;0.80;0.20;;;3.50;99.90;;;;;;5155549;27;20501;-52
2022/01/08 07:05:53;;;;;;;0.40;0.20;;;3.40;99.90;;;;;;5155155;27;20424;-53
2022/01/08 07:08:20;;;;;;;0.30;0.20;;;3.30;99.90;;;;;;5155649;27;20989;-55
2022/01/08 07:10:47;;;;;;;0.40;0.20;;;3.20;99.90;;;;;;5155707;27;20516;-51
2022/01/08 07:13:15;;;;;;;0.50;0.10;;;3.20;99.90;;;;;;5155259;27;20419;-54
2022/01/08 07:15:42;;;;;;;0.40;0.20;;;3.20;99.90;;;;;;5155433;27;20421;-54
2022/01/08 07:18:11;;;;;;;2.90;0.20;;;3.30;99.90;;;;;;5154662;27;20424;-50
2022/01/08 07:20:38;;;;;;;0.50;0.20;;;3.30;99.90;;;;;;5153716;27;20432;-50
2022/01/08 07:23:05;;;;;;;0.40;0.10;;;3.20;99.90;;;;;;5153911;27;20500;-53
2022/01/08 07:25:32;;;;;;;0.60;0.30;;;3.10;99.90;;;;;;5154203;27;20500;-51
2022/01/08 07:27:59;;;;;;;0.40;0.20;;;3.00;99.90;;;;;;5155210;27;20444;-55
2022/01/08 07:30:28;;;;;;;0.70;0.25;;;3.00;99.90;;;;;;5157834;27;20415;-51
2022/01/08 07:32:54;;;;;;;0.40;0.20;;;3.10;99.90;;;;;;5158223;27;20791;-55
2022/01/08 07:35:23;;;;;;;0.40;0.22;;;3.20;99.90;;;;;;5159585;27;20452;-52
2022/01/08 07:37:52;;;;;;;0.40;0.20;;;3.30;99.90;;;;;;5159938;27;20425;-52
2022/01/08 07:40:19;;;;;;;0.40;0.20;;;3.30;99.90;;;;;;5159668;27;20504;-52
2022/01/08 07:42:47;;;;;;;0.60;0.20;;;3.30;99.90;;;;;;5160110;27;20495;-52
2022/01/08 07:45:14;;;;;;;0.47;0.30;;;3.50;99.90;;;;;;5159564;27;20413;-52
2022/01/08 07:47:42;;;;;;;0.50;0.30;;;3.60;99.90;;;;;;5159682;27;20895;-49
2022/01/08 07:50:10;;;;;;;1.10;0.20;;;3.80;99.90;;;;;;5159759;27;20784;-52
2022/01/08 07:52:37;;;;;;;1.00;0.30;;;4.20;99.90;;;;;;5159667;27;20808;-54
2022/01/08 07:55:04;;;;;;;0.55;0.30;;;4.20;99.90;;;;;;5159945;27;20503;-53
2022/01/08 07:57:34;;;;;;;0.60;0.30;;;3.80;99.90;;;;;;5156609;27;20800;-55
2022/01/08 08:00:01;;;;;;;0.45;0.30;;;3.50;99.90;;;;;;5155309;27;20539;-53
2022/01/08 08:02:28;;;;;;;0.80;0.40;;;3.30;99.90;;;;;;5157212;27;20777;-53
2022/01/08 08:04:56;;;;;;;0.60;0.30;;;3.30;99.90;;;;;;5157776;27;20891;-53
2022/01/08 08:07:31;;;;;;;1.00;0.30;;;3.60;99.90;;;;;;5158177;27;20782;-56
2022/01/08 08:09:58;;;;;;;0.60;0.30;;;3.60;99.90;;;;;;5157884;27;20829;-55
2022/01/08 08:12:25;;;;;;;0.60;0.40;;;3.80;99.90;;;;;;5157808;27;20507;-55
2022/01/08 08:14:52;;;;;;;1.10;0.40;;;3.70;99.90;;;;;;5158375;27;20474;-51
2022/01/08 08:17:19;;;;;;;1.40;0.30;;;3.50;99.90;;;;;;5157513;27;20420;-55
2022/01/08 08:19:46;;;;;;;0.60;0.30;;;4.00;99.90;;;;;;5157567;27;20514;-53
2022/01/08 08:22:14;;;;;;;0.50;0.30;;;3.60;99.90;;;;;;5158250;27;20412;-55
2022/01/08 08:24:41;;;;;;;1.00;0.30;;;3.80;99.90;;;;;;5157547;27;20507;-54
2022/01/08 08:27:08;;;;;;;0.70;0.30;;;3.80;99.90;;;;;;5159178;27;20591;-53
2022/01/08 08:29:35;;;;;;;1.80;0.30;;;4.00;99.90;;;;;;5158486;27;20899;-55
2022/01/08 08:32:02;;;;;;;0.60;0.30;;;4.00;99.90;;;;;;5155663;27;20450;-54
2022/01/08 08:34:29;;;;;;;0.40;0.30;;;4.10;99.90;;;;;;5155770;27;20998;-51
2022/01/08 08:36:56;;;;;;;1.20;0.30;;;3.90;99.90;;;;;;5156977;27;20473;-57
2022/01/08 08:39:25;;;;;;;1.20;0.30;;;3.90;99.90;;;;;;5155960;27;20520;-57
2022/01/08 08:41:52;;;;;;;0.50;0.22;;;3.60;99.90;;;;;;5156662;27;20766;-56
2022/01/08 08:44:19;;;;;;;0.70;0.30;;;3.50;99.90;;;;;;5155967;27;20497;-57
2022/01/08 08:46:48;;;;;;;0.68;0.30;;;3.70;99.90;;;;;;5157280;27;20423;-55
2022/01/08 08:49:15;;;;;;;0.60;0.30;;;3.40;99.90;;;;;;5158218;27;20504;-52
2022/01/08 08:51:42;;;;;;;1.05;0.20;;;3.70;99.90;;;;;;5158283;27;20507;-55
2022/01/08 08:54:09;;;;;;;1.10;0.30;;;3.90;99.90;;;;;;5156394;27;20828;-55
2022/01/08 08:56:42;;;;;;;1.33;0.30;;;3.80;99.90;;;;;;5157386;27;20636;-54
2022/01/08 08:59:10;;;;;;;1.73;0.30;;;4.20;99.90;;;;;;5157016;27;20421;-54
2022/01/08 09:01:36;;;;;;;0.60;0.30;;;4.30;99.90;;;;;;5157558;27;20427;-56
2022/01/08 09:04:04;;;;;;;0.50;0.30;;;4.40;99.90;;;;;;5157295;27;20503;-53
2022/01/08 09:06:31;;;;;;;0.65;0.22;;;4.20;99.90;;;;;;5156148;27;20515;-53
2022/01/08 09:09:01;;;;;;;0.80;0.30;;;4.30;99.90;;;;;;5155821;27;20483;-55
2022/01/08 09:11:31;;;;;;;0.57;0.30;;;4.10;99.90;;;;;;5156053;27;20899;-55
2022/01/08 09:14:03;;;;;;;0.63;0.30;;;4.60;99.90;;;;;;5155240;27;20500;-56
2022/01/08 09:16:30;;;;;;;0.70;0.28;;;4.90;99.90;;;;;;5155660;27;20478;-56
2022/01/08 09:18:57;;;;;;;0.65;0.30;;;5.10;99.90;;;;;;5156123;27;20867;-55
2022/01/08 09:21:24;;;;;;;2.20;0.50;;;5.10;99.90;;;;;;5157180;27;20425;-56
2022/01/08 09:23:51;;;;;;;0.63;0.20;;;5.10;99.90;;;;;;5156887;27;20500;-51
2022/01/08 09:26:18;;;;;;;0.70;0.30;;;5.10;99.90;;;;;;5156821;27;20421;-55
2022/01/08 09:28:45;;;;;;;0.80;0.30;;;5.50;99.90;;;;;;5155457;27;20646;-55
2022/01/08 09:31:14;;;;;;;0.90;0.30;;;5.50;99.90;;;;;;5156116;27;20527;-54
2022/01/08 09:33:41;;;;;;;1.30;0.40;;;5.20;99.90;;;;;;5156805;27;20421;-55
2022/01/08 09:36:08;;;;;;;0.55;0.30;;;5.10;99.90;;;;;;5156260;27;20839;-54
2022/01/08 09:38:35;;;;;;;0.50;0.30;;;4.70;99.90;;;;;;5154816;27;20423;-53
2022/01/08 09:41:02;;;;;;;0.90;0.40;;;4.70;99.90;;;;;;5155833;27;20515;-54
2022/01/08 09:43:29;;;;;;;0.70;0.30;;;4.70;99.90;;;;;;5155603;27;20504;-57
2022/01/08 09:45:56;;;;;;;1.30;0.30;;;4.70;99.90;;;;;;5155280;27;20417;-56
2022/01/08 09:48:26;;;;;;;0.98;0.40;;;4.80;99.90;;;;;;5154743;27;20498;-56
2022/01/08 09:50:53;;;;;;;0.80;0.40;;;4.50;99.90;;;;;;5154628;27;20824;-55
2022/01/08 09:53:20;;;;;;;0.60;0.30;;;4.30;99.90;;;;;;5152866;27;20409;-55
2022/01/08 09:55:48;;;;;;;1.30;0.30;;;4.10;99.90;;;;;;5150817;27;20429;-54
2022/01/08 09:58:15;;;;;;;0.60;0.40;;;3.90;99.90;;;;;;5152978;27;20528;-56
2022/01/08 10:00:45;;;;;;;0.75;0.40;;;3.70;99.90;;;;;;5153680;27;20527;-56
2022/01/08 10:03:18;;;;;;;1.00;0.40;;;3.60;99.90;;;;;;5141619;27;20499;-54
2022/01/08 10:05:48;;;;;;;1.10;0.40;;;4.00;99.90;;;;;;5132846;27;20505;-54
2022/01/08 10:08:16;;;;;;;0.90;0.30;;;4.10;99.90;;;;;;5133127;27;20605;-55
2022/01/08 10:10:55;;;;;;;0.80;0.30;;;4.70;99.90;;;;;;5133778;27;20426;-50
2022/01/08 10:13:24;;;;;;;1.80;0.40;;;5.40;99.90;;;;;;5150825;27;20914;-56
2022/01/08 10:18:39;;;;;;;0.60;0.30;;;5.60;99.90;;;;;;5153356;27;21228;-57
2022/01/08 10:21:19;;;;;;;0.70;0.40;;;5.10;99.90;;;;;;5154184;27;20460;-54
2022/01/08 10:23:49;;;;;;;0.90;0.30;;;5.10;99.90;;;;;;5156214;27;20445;-55
2022/01/08 10:26:18;;;;;;;0.50;0.30;;;5.40;99.90;;;;;;5155198;27;20507;-55
2022/01/08 10:28:48;;;;;;;0.80;0.40;;;5.60;99.90;;;;;;5153475;27;20424;-57
2022/01/08 10:31:22;;;;;;;3.45;1.50;;;5.30;99.90;;;;;;5152830;27;20527;-53
2022/01/08 10:33:51;;;;;;;1.90;0.60;;;4.70;99.90;;;;;;5153197;27;20709;-55
2022/01/08 10:36:27;;;;;;;1.00;0.30;;;4.70;99.90;;;;;;5149564;27;20520;-56
2022/01/08 10:38:56;;;;;;;0.88;0.40;;;4.60;99.90;;;;;;5147979;27;20812;-55
2022/01/08 10:41:24;;;;;;;0.60;0.35;;;4.70;99.90;;;;;;5150394;27;20614;-52
2022/01/08 10:44:13;;;;;;;0.70;0.40;;;4.80;99.90;;;;;;5139208;27;20423;-57
2022/01/08 10:46:45;;;;;;;0.70;0.40;;;5.30;99.90;;;;;;5140358;27;20429;-56
2022/01/08 10:49:16;;;;;;;1.50;0.40;;;5.40;99.90;;;;;;5150731;27;20449;-56
2022/01/08 10:51:51;;;;;;;0.70;0.40;;;5.80;99.90;;;;;;5154315;27;20867;-56
2022/01/08 10:54:17;;;;;;;2.05;0.38;;;6.20;99.90;;;;;;5152755;27;20421;-56
2022/01/08 10:56:48;;;;;;;1.35;0.50;;;6.30;99.90;;;;;;5154415;27;20519;-56
2022/01/08 10:59:21;;;;;;;1.20;0.40;;;5.80;99.90;;;;;;5153379;27;20515;-57
2022/01/08 11:01:52;;;;;;;1.20;0.40;;;5.50;99.90;;;;;;5150729;27;20431;-57
2022/01/08 11:04:32;;;;;;;1.60;0.40;;;5.60;99.90;;;;;;5156906;27;20507;-53
2022/01/08 11:07:02;;;;;;;1.98;0.30;;;4.90;99.90;;;;;;5151764;27;20433;-52
2022/01/08 11:09:30;;;;;;;1.15;0.40;;;4.90;99.90;;;;;;5154697;27;20496;-57
2022/01/08 11:11:58;;;;;;;0.50;0.30;;;5.30;99.90;;;;;;5158974;27;20416;-57
2022/01/08 11:17:15;;;;;;;0.93;0.60;;;5.30;99.90;;;;;;5153751;27;20441;-57
2022/01/08 11:19:45;;;;;;;0.80;0.50;;;5.00;99.90;;;;;;5156121;27;20704;-57
2022/01/08 11:22:15;;;;;;;0.88;0.30;;;4.80;99.90;;;;;;5157467;27;20515;-57
2022/01/08 11:24:50;;;;;;;1.20;0.40;;;4.60;99.90;;;;;;5155890;27;20416;-55
2022/01/08 11:27:24;;;;;;;1.98;0.40;;;4.60;99.90;;;;;;5157220;27;20452;-57
2022/01/08 11:30:04;;;;;;;0.70;0.30;;;5.00;99.90;;;;;;5158139;27;20404;-58
2022/01/08 11:32:32;;;;;;;0.70;0.30;;;5.10;99.90;;;;;;5158445;27;20519;-58
2022/01/08 11:35:02;;;;;;;2.20;0.40;;;4.90;99.90;;;;;;5147483;27;20508;-56
2022/01/08 11:37:31;;;;;;;1.70;0.40;;;4.60;99.90;;;;;;5174708;27;20481;-56
2022/01/08 11:40:03;;;;;;;0.90;0.30;;;4.30;99.90;;;;;;5156635;27;20427;-59
2022/01/08 11:42:32;;;;;;;0.60;0.30;;;4.40;99.90;;;;;;5156513;27;20452;-58
2022/01/08 11:45:04;;;;;;;0.82;0.30;;;4.50;99.90;;;;;;5162034;27;20517;-59
2022/01/08 11:47:31;;;;;;;1.63;0.30;;;5.00;99.90;;;;;;5157007;27;20534;-59
2022/01/08 11:50:01;;;;;;;0.50;0.30;;;5.20;99.90;;;;;;5156104;27;20839;-59
2022/01/08 11:52:28;;;;;;;1.20;0.40;;;5.30;99.90;;;;;;5154236;27;20878;-59
2022/01/08 11:54:58;;;;;;;0.70;0.30;;;5.50;99.90;;;;;;5156836;27;20469;-59
2022/01/08 11:57:27;;;;;;;0.68;0.30;;;6.00;99.90;;;;;;5158510;27;20831;-59
2022/01/08 11:59:57;;;;;;;0.60;0.30;;;6.10;99.90;;;;;;5155856;27;20527;-59
2022/01/08 12:02:35;;;;;;;0.80;0.40;;;6.20;99.90;;;;;;5140082;27;20499;-58
2022/01/08 12:05:03;;;;;;;1.00;0.30;;;6.00;99.90;;;;;;5151264;27;20507;-59
2022/01/08 12:07:34;;;;;;;0.60;0.20;;;5.40;99.90;;;;;;5146507;27;20461;-59
2022/01/08 12:10:17;;;;;;;2.00;0.40;;;5.20;99.90;;;;;;5149380;27;20443;-58
2022/01/08 12:12:53;;;;;;;2.00;0.30;;;5.00;99.90;;;;;;5138622;27;20517;-58
2022/01/08 12:15:47;;;;;;;1.60;0.40;;;5.20;99.90;;;;;;5145667;27;20580;-57
2022/01/08 12:18:16;;;;;;;0.70;0.30;;;4.80;99.90;;;;;;5158447;27;20453;-59
2022/01/08 12:20:46;;;;;;;0.73;0.30;;;4.90;99.90;;;;;;5169469;27;20853;-58
2022/01/08 12:23:31;;;;;;;0.70;0.30;;;5.20;99.90;;;;;;5146267;27;20416;-58
2022/01/08 12:26:02;;;;;;;1.67;0.30;;;5.00;99.90;;;;;;5154825;27;20420;-58
2022/01/08 12:28:56;;;;;;;0.50;0.30;;;4.90;99.90;;;;;;5162133;27;20851;-59
2022/01/08 12:31:37;;;;;;;1.30;0.30;;;4.60;99.90;;;;;;5151363;27;20937;-58
2022/01/08 12:34:43;;;;;;;2.40;0.40;;;4.60;99.90;;;;;;5152821;27;20463;-59
2022/01/08 12:37:12;;;;;;;1.80;0.30;;;4.50;99.90;;;;;;5149788;27;20425;-59
2022/01/08 12:39:57;;;;;;;1.00;0.40;;;4.90;99.90;;;;;;5149025;27;20425;-59
2022/01/08 12:42:43;;;;;;;1.20;0.30;;;4.70;99.90;;;;;;5149668;27;20464;-59
2022/01/08 12:45:18;;;;;;;1.10;0.30;;;4.80;99.90;;;;;;5146491;27;20501;-59
2022/01/08 12:47:50;;;;;;;1.30;0.40;;;4.70;99.90;;;;;;5149771;27;20530;-59
2022/01/08 12:50:19;;;;;;;0.80;0.30;;;4.30;99.90;;;;;;5145722;27;20486;-58
2022/01/08 12:53:19;;;;;;;0.90;0.40;;;4.20;99.90;;;;;;5147699;27;20839;-58
2022/01/08 12:56:12;;;;;;;3.08;0.40;;;4.30;99.90;;;;;;5147750;27;20446;-58
2022/01/08 12:58:51;;;;;;;0.90;0.40;;;4.40;99.90;;;;;;5145462;27;20440;-59
2022/01/08 13:01:24;;;;;;;1.15;0.30;;;4.20;99.90;;;;;;5146158;27;20644;-58
2022/01/08 13:03:54;;;;;;;1.10;0.30;;;4.20;99.90;;;;;;5147964;27;20423;-58
2022/01/08 13:06:32;;;;;;;1.00;0.30;;;4.30;99.90;;;;;;5147298;27;20425;-58
2022/01/08 13:09:01;;;;;;;0.60;0.30;;;4.80;99.90;;;;;;5146580;27;20418;-58
2022/01/08 13:11:29;;;;;;;0.60;0.30;;;5.10;99.90;;;;;;5144952;27;20436;-59
2022/01/08 13:14:00;;;;;;;0.60;0.40;;;5.00;99.90;;;;;;5147158;27;21030;-58
2022/01/08 13:16:30;;;;;;;0.90;0.30;;;4.70;99.90;;;;;;5150637;27;20470;-58
2022/01/08 13:18:59;;;;;;;0.98;0.32;;;4.90;99.90;;;;;;5152781;27;20416;-58
2022/01/08 13:21:30;;;;;;;0.55;0.30;;;4.60;99.90;;;;;;5143861;27;20438;-59
2022/01/08 13:23:59;;;;;;;1.85;0.50;;;4.40;99.90;;;;;;5148813;27;20433;-59
2022/01/08 13:26:31;;;;;;;1.00;0.40;;;4.50;99.90;;;;;;5146476;27;20428;-59
2022/01/08 13:29:00;;;;;;;1.13;0.40;;;4.50;99.90;;;;;;5149686;27;20493;-58